Time;durP1;ratioP1;P1;durP2;ratioP2;P2;SDS_P1;SDS_P2;PMS_P1;PMS_P2;Temp;Humidity;BMP_temperature;BMP_pressure;BME280_temperature;BME280_humidity;BME280_pressure;Samples;Min_cycle;Max_cycle;Signal;HPM_P1;HPM_P2
2022/06/12 00:00:25;;;;;;;6.83;5.67;;;;;;;18.04;85.61;98698.72;4219215;28;20630;-87
2022/06/12 00:02:28;;;;;;;7.30;6.10;;;;;;;18.00;85.50;98698.19;4222462;28;21239;-86
2022/06/12 00:04:31;;;;;;;7.73;5.63;;;;;;;17.98;85.40;98701.91;4213517;28;20653;-86
2022/06/12 00:06:35;;;;;;;6.77;6.10;;;;;;;17.96;85.27;98695.94;4204907;28;20642;-87
2022/06/12 00:08:39;;;;;;;6.57;5.97;;;;;;;17.95;85.75;98699.53;4208799;28;20626;-86
2022/06/12 00:10:50;;;;;;;6.80;6.13;;;;;;;17.92;85.47;98699.84;4200957;28;20655;-86
2022/06/12 00:12:53;;;;;;;6.70;6.03;;;;;;;17.90;85.51;98699.13;4232115;28;20668;-86
2022/06/12 00:14:57;;;;;;;7.20;6.60;;;;;;;17.85;85.86;98697.88;4229812;28;20659;-86
2022/06/12 00:17:01;;;;;;;6.60;6.00;;;;;;;17.83;86.30;98689.22;4220077;28;20727;-87
2022/06/12 00:19:04;;;;;;;7.40;6.40;;;;;;;17.79;85.70;98693.97;4210900;28;20731;-86
2022/06/12 00:21:11;;;;;;;7.97;6.37;;;;;;;17.79;85.63;98698.41;4204645;28;20657;-86
2022/06/12 00:23:23;;;;;;;10.63;6.80;;;;;;;17.76;86.65;98694.22;4227794;28;20640;-86
2022/06/12 00:25:30;;;;;;;9.17;6.47;;;;;;;17.74;86.57;98690.91;4222511;28;20656;-86
2022/06/12 00:27:33;;;;;;;6.40;5.80;;;;;;;17.73;86.34;98691.03;4209843;28;20630;-87
2022/06/12 00:29:37;;;;;;;19.00;7.37;;;;;;;17.71;85.70;98696.44;4214623;28;20722;-86
2022/06/12 00:31:44;;;;;;;6.87;6.17;;;;;;;17.72;85.88;98694.63;4223502;28;20641;-86
2022/06/12 00:33:48;;;;;;;6.83;6.10;;;;;;;17.66;86.77;98687.25;4218750;28;21046;-86
2022/06/12 00:35:51;;;;;;;9.23;6.20;;;;;;;17.65;86.55;98685.56;4225863;27;20677;-86
2022/06/12 00:37:54;;;;;;;11.47;6.93;;;;;;;17.62;86.44;98686.69;4220923;28;20653;-87
2022/06/12 00:39:58;;;;;;;6.80;6.20;;;;;;;17.60;86.34;98693.88;4212631;28;20659;-86
2022/06/12 00:42:02;;;;;;;7.57;6.80;;;;;;;17.59;86.97;98697.50;4215230;28;20981;-87
2022/06/12 00:44:07;;;;;;;7.80;7.10;;;;;;;17.57;86.76;98693.31;4211507;28;20681;-87
2022/06/12 00:46:41;;;;;;;6.97;6.20;;;;;;;17.53;85.85;98699.84;4216770;28;20642;-86
2022/06/12 00:48:45;;;;;;;7.93;6.70;;;;;;;17.49;87.49;98691.34;4211603;28;20635;-87
2022/06/12 00:50:52;;;;;;;7.20;6.60;;;;;;;17.50;87.46;98693.03;4221295;28;20700;-86
2022/06/12 00:52:56;;;;;;;7.80;6.60;;;;;;;17.48;86.04;98688.84;4220167;28;20640;-87
2022/06/12 00:55:05;;;;;;;8.27;6.73;;;;;;;17.45;86.56;98688.28;4224491;28;20624;-87
2022/06/12 00:57:09;;;;;;;8.33;6.70;;;;;;;17.42;86.62;98691.16;4214732;28;20727;-87
2022/06/12 00:59:16;;;;;;;7.00;6.30;;;;;;;17.40;86.23;98680.75;4210005;28;20628;-87
2022/06/12 01:01:27;;;;;;;7.07;6.37;;;;;;;17.38;87.63;98687.97;4226023;28;20985;-86
2022/06/12 01:03:31;;;;;;;7.13;6.43;;;;;;;17.32;86.64;98685.00;4205081;28;21000;-87
2022/06/12 01:08:02;;;;;;;7.60;5.90;;;;;;;17.25;87.40;98682.06;4183735;28;20665;-86
2022/06/12 01:10:08;;;;;;;7.40;6.27;;;;;;;17.24;86.45;98682.19;4225876;28;21230;-86
2022/06/12 01:12:16;;;;;;;6.23;5.63;;;;;;;17.21;86.29;98679.81;4223826;28;20652;-87
2022/06/12 01:14:22;;;;;;;7.37;6.67;;;;;;;17.18;88.42;98677.41;4214485;28;20676;-86
2022/06/12 01:16:26;;;;;;;9.43;6.73;;;;;;;17.16;86.59;98677.53;4211507;28;20708;-86
2022/06/12 01:18:36;;;;;;;7.10;6.00;;;;;;;17.14;87.64;98679.47;4212095;28;20622;-86
2022/06/12 01:20:45;;;;;;;6.83;6.13;;;;;;;17.11;87.02;98673.66;4204753;28;20620;-86
2022/06/12 01:23:20;;;;;;;8.53;7.03;;;;;;;17.08;86.41;98671.28;4227262;28;20654;-87
2022/06/12 01:25:40;;;;;;;7.33;6.40;;;;;;;17.04;87.17;98675.13;4214651;28;20655;-86
2022/06/12 01:28:13;;;;;;;7.07;6.37;;;;;;;17.03;87.69;98676.06;4217811;28;21201;-87
2022/06/12 01:30:21;;;;;;;7.17;6.47;;;;;;;17.02;87.82;98671.78;4211263;28;20638;-86
2022/06/12 01:32:30;;;;;;;6.77;6.17;;;;;;;17.01;87.63;98672.75;4214516;28;20623;-86
2022/06/12 01:34:38;;;;;;;7.27;6.53;;;;;;;16.98;87.93;98677.44;4205128;28;20627;-86
2022/06/12 01:37:15;;;;;;;7.03;6.33;;;;;;;16.95;87.62;98668.00;4214181;28;20636;-86
2022/06/12 01:39:24;;;;;;;7.23;6.53;;;;;;;16.92;87.86;98672.69;4230982;28;20631;-86
2022/06/12 01:41:33;;;;;;;6.80;6.10;;;;;;;16.93;87.35;98672.56;4214253;28;20634;-86
2022/06/12 01:43:40;;;;;;;6.50;5.83;;;;;;;16.91;88.83;98674.47;4213684;28;21094;-86
2022/06/12 01:45:50;;;;;;;7.83;6.27;;;;;;;16.90;88.48;98675.47;4213701;28;20678;-86
2022/06/12 01:47:59;;;;;;;7.53;6.77;;;;;;;16.87;86.78;98675.72;4206031;28;20623;-86
2022/06/12 01:50:10;;;;;;;7.37;6.67;;;;;;;16.83;87.36;98670.84;4212958;28;20641;-86
2022/06/12 01:52:22;;;;;;;6.57;6.00;;;;;;;16.79;87.24;98672.88;4223549;28;20684;-86
2022/06/12 01:54:29;;;;;;;9.70;6.40;;;;;;;16.76;88.87;98672.31;4200641;28;20713;-86
2022/06/12 01:56:38;;;;;;;7.23;6.60;;;;;;;16.71;88.03;98675.31;4214384;28;20622;-86
2022/06/12 01:58:46;;;;;;;6.60;5.67;;;;;;;16.71;88.32;98663.97;4207089;28;20654;-87
2022/06/12 02:00:54;;;;;;;7.30;6.13;;;;;;;16.72;88.20;98673.53;4208369;28;21224;-86
2022/06/12 02:03:02;;;;;;;7.40;6.60;;;;;;;16.68;88.69;98672.94;4219911;28;20645;-86
2022/06/12 02:05:13;;;;;;;8.90;7.20;;;;;;;16.69;89.65;98674.63;4220101;28;20638;-86
2022/06/12 02:07:22;;;;;;;6.90;6.20;;;;;;;16.67;87.67;98673.91;4220802;28;20646;-86
2022/06/12 02:09:28;;;;;;;7.53;6.83;;;;;;;16.65;87.82;98672.38;4216932;28;20629;-86
2022/06/12 02:13:59;;;;;;;6.87;6.20;;;;;;;16.63;89.45;98672.50;4223656;28;20646;-86
2022/06/12 02:16:07;;;;;;;9.97;6.40;;;;;;;16.63;87.62;98675.13;4205914;28;20937;-86
2022/06/12 02:18:15;;;;;;;6.67;6.07;;;;;;;16.65;89.15;98675.00;4220447;28;20639;-86
2022/06/12 02:20:20;;;;;;;7.50;6.80;;;;;;;16.63;89.39;98672.50;4218795;28;20635;-86
2022/06/12 02:22:27;;;;;;;6.97;6.20;;;;;;;16.58;88.61;98674.69;4211870;28;20690;-86
2022/06/12 02:24:33;;;;;;;7.33;6.33;;;;;;;16.58;88.88;98673.81;4228381;28;20649;-86
2022/06/12 02:26:40;;;;;;;6.90;6.20;;;;;;;16.56;90.08;98662.59;4224108;28;20665;-86
2022/06/12 02:28:48;;;;;;;7.60;6.63;;;;;;;16.54;88.38;98668.00;4215231;28;21096;-86
2022/06/12 02:30:54;;;;;;;6.87;6.17;;;;;;;16.57;88.79;98667.75;4205047;28;21197;-86
2022/06/12 02:33:02;;;;;;;7.03;6.30;;;;;;;16.59;89.28;98662.34;4217903;28;20714;-86
2022/06/12 02:35:10;;;;;;;6.57;5.90;;;;;;;16.58;88.06;98664.16;4227398;28;20670;-86
2022/06/12 02:37:19;;;;;;;7.63;6.80;;;;;;;16.55;89.84;98660.91;4224285;28;20626;-86
2022/06/12 02:39:26;;;;;;;8.50;6.20;;;;;;;16.51;89.61;98665.59;4208810;28;20632;-86
2022/06/12 02:41:33;;;;;;;6.30;5.70;;;;;;;16.53;89.13;98671.56;4197267;28;21000;-86
2022/06/12 02:43:38;;;;;;;7.83;6.60;;;;;;;16.53;89.38;98678.66;4207104;28;20631;-86
2022/06/12 02:45:45;;;;;;;7.10;6.40;;;;;;;16.50;89.66;98669.19;4205271;28;21277;-86
2022/06/12 02:47:51;;;;;;;6.57;5.97;;;;;;;16.52;88.44;98675.19;4209451;28;20633;-86
2022/06/12 02:49:56;;;;;;;8.60;7.00;;;;;;;16.51;89.52;98686.69;4215953;28;20658;-86
2022/06/12 02:52:13;;;;;;;7.37;5.90;;;;;;;16.50;88.30;98670.19;4201280;28;21025;-87
2022/06/12 02:54:27;;;;;;;7.30;6.57;;;;;;;16.49;89.15;98679.03;4206029;28;20648;-86
2022/06/12 02:56:36;;;;;;;6.87;5.83;;;;;;;16.46;90.05;98676.66;4214585;28;21098;-86
2022/06/12 02:58:44;;;;;;;7.90;6.13;;;;;;;16.45;89.70;98673.19;4202774;28;21303;-86
2022/06/12 03:00:51;;;;;;;7.50;6.70;;;;;;;16.47;89.24;98680.97;4221969;28;20619;-86
2022/06/12 03:03:20;;;;;;;7.87;7.03;;;;;;;16.46;89.58;98685.38;4219650;28;21062;-86
2022/06/12 03:05:28;;;;;;;8.97;6.57;;;;;;;16.48;88.42;98687.88;4205906;28;20638;-86
2022/06/12 03:07:32;;;;;;;6.73;6.10;;;;;;;16.46;90.20;98684.56;4211484;28;20633;-86
2022/06/12 03:09:35;;;;;;;7.60;6.13;;;;;;;16.46;90.02;98674.00;4199012;28;20642;-86
2022/06/12 03:11:41;;;;;;;9.23;6.87;;;;;;;16.43;89.55;98676.91;4228774;28;20935;-86
2022/06/12 03:13:45;;;;;;;7.60;6.90;;;;;;;16.37;88.32;98677.41;4211323;28;20643;-87
2022/06/12 03:15:52;;;;;;;7.27;6.47;;;;;;;16.30;89.41;98682.34;4216821;28;20636;-85
2022/06/12 03:17:56;;;;;;;6.53;5.87;;;;;;;16.29;89.05;98693.81;4220435;28;21035;-86
2022/06/12 03:19:59;;;;;;;6.90;6.20;;;;;;;16.28;90.07;98680.78;4210594;28;21202;-86
2022/06/12 03:22:11;;;;;;;6.97;5.70;;;;;;;16.27;89.18;98684.41;4205134;28;20708;-86
2022/06/12 03:24:47;;;;;;;6.53;5.93;;;;;;;16.24;89.18;98685.47;4200453;28;20634;-86
2022/06/12 03:26:57;;;;;;;6.37;5.63;;;;;;;16.20;88.84;98688.44;4209936;28;20738;-86
2022/06/12 03:29:07;;;;;;;7.80;6.60;;;;;;;16.14;88.93;98684.50;4218077;28;20644;-86
2022/06/12 03:31:17;;;;;;;6.80;6.10;;;;;;;16.12;89.55;98686.44;4219914;28;20630;-86
2022/06/12 03:33:29;;;;;;;8.33;6.43;;;;;;;16.14;88.49;98688.94;4224340;27;21304;-86
2022/06/12 03:35:48;;;;;;;7.40;6.80;;;;;;;16.17;89.46;98692.16;4224430;28;20638;-86
2022/06/12 03:37:59;;;;;;;9.40;7.30;;;;;;;16.19;89.39;98684.13;4220145;28;20646;-86
2022/06/12 03:40:07;;;;;;;8.10;7.10;;;;;;;16.21;89.27;98690.97;4225557;28;20624;-86
2022/06/12 03:42:18;;;;;;;8.30;7.27;;;;;;;16.22;89.60;98699.72;4210766;28;21255;-86
2022/06/12 03:44:25;;;;;;;7.73;6.90;;;;;;;16.22;89.29;98691.81;4211843;28;20633;-87
2022/06/12 03:46:34;;;;;;;8.10;7.30;;;;;;;16.20;90.43;98691.91;4208332;28;20640;-86
2022/06/12 03:48:41;;;;;;;7.17;6.47;;;;;;;16.20;89.89;98689.28;4211860;28;20722;-87
2022/06/12 03:50:47;;;;;;;9.07;8.17;;;;;;;16.21;89.76;98688.31;4206251;28;21011;-87
2022/06/12 03:52:56;;;;;;;6.53;6.00;;;;;;;16.21;89.76;98690.13;4211632;28;21222;-86
2022/06/12 03:55:02;;;;;;;9.20;6.70;;;;;;;16.25;89.18;98688.94;4210366;28;20624;-86
2022/06/12 03:59:35;;;;;;;7.43;6.37;;;;;;;16.30;88.97;98678.88;4221106;28;20697;-86
2022/06/12 04:01:38;;;;;;;8.13;6.93;;;;;;;16.33;90.00;98690.00;4220402;28;20649;-86
2022/06/12 04:03:43;;;;;;;7.60;6.60;;;;;;;16.34;89.74;98688.19;4218457;28;20629;-87
2022/06/12 04:05:49;;;;;;;8.27;6.57;;;;;;;16.36;90.16;98689.75;4205250;28;20615;-87
2022/06/12 04:07:56;;;;;;;7.83;6.73;;;;;;;16.36;89.03;98684.47;4205428;28;21152;-86
2022/06/12 04:10:02;;;;;;;8.63;7.20;;;;;;;16.39;90.33;98688.63;4207571;28;20749;-86
2022/06/12 04:12:09;;;;;;;9.43;6.90;;;;;;;16.42;89.06;98688.38;4200655;28;20643;-86
2022/06/12 04:14:15;;;;;;;7.53;6.70;;;;;;;16.44;89.91;98689.13;4219124;28;20674;-86
2022/06/12 04:16:24;;;;;;;7.43;6.73;;;;;;;16.45;88.40;98683.72;4200617;28;20638;-86
2022/06/12 04:18:28;;;;;;;8.53;7.33;;;;;;;16.48;90.33;98691.38;4204163;28;20641;-86
2022/06/12 04:20:41;;;;;;;7.30;6.27;;;;;;;16.50;88.53;98696.50;4216038;28;20722;-86
2022/06/12 04:22:49;;;;;;;7.53;6.73;;;;;;;16.51;88.28;98704.28;4204447;28;20676;-87
2022/06/12 04:24:59;;;;;;;7.73;6.97;;;;;;;16.55;89.53;98695.16;4210692;28;20630;-87
2022/06/12 04:27:07;;;;;;;8.00;7.20;;;;;;;16.58;89.50;98698.41;4210519;28;20647;-87
2022/06/12 04:29:21;;;;;;;8.00;7.30;;;;;;;16.63;88.73;98704.09;4215125;28;20650;-86
2022/06/12 04:31:25;;;;;;;7.30;6.60;;;;;;;16.67;89.09;98710.81;4221378;28;20623;-86
2022/06/12 04:33:53;;;;;;;7.50;6.77;;;;;;;16.72;89.60;98699.88;4204333;28;21029;-86
2022/06/12 04:36:00;;;;;;;8.37;7.57;;;;;;;16.75;88.92;98700.47;4193510;28;20700;-86
2022/06/12 04:38:03;;;;;;;7.30;6.60;;;;;;;16.82;89.33;98706.88;4173527;28;21205;-86
2022/06/12 04:40:23;;;;;;;7.73;7.03;;;;;;;16.90;88.08;98701.81;4177746;28;20747;-86
2022/06/12 04:42:30;;;;;;;8.77;6.93;;;;;;;16.95;89.80;98696.97;4181393;28;20644;-86
2022/06/12 04:44:33;;;;;;;7.70;7.00;;;;;;;17.00;88.25;98698.28;4209653;28;20631;-86
2022/06/12 04:46:40;;;;;;;7.60;6.63;;;;;;;17.03;87.65;98692.75;4223639;28;20634;-86
2022/06/12 04:48:44;;;;;;;8.23;6.90;;;;;;;17.10;86.82;98698.31;4207475;28;20782;-86
2022/06/12 04:50:48;;;;;;;8.27;7.20;;;;;;;17.09;86.87;98696.66;4219439;28;20627;-87
2022/06/12 04:52:51;;;;;;;9.03;7.20;;;;;;;17.14;87.25;98700.56;4227555;28;20965;-86
2022/06/12 04:54:54;;;;;;;8.37;7.20;;;;;;;17.20;88.46;98700.09;4216316;28;20612;-86
2022/06/12 04:57:00;;;;;;;8.93;6.90;;;;;;;17.26;87.33;98703.97;4211820;28;20628;-86
2022/06/12 04:59:04;;;;;;;7.80;7.07;;;;;;;17.31;87.62;98712.38;4225377;28;20631;-87
2022/06/12 05:01:08;;;;;;;7.30;6.60;;;;;;;17.36;88.57;98712.78;4210303;28;20715;-87
2022/06/12 05:03:12;;;;;;;7.90;7.03;;;;;;;17.41;88.27;98713.22;4224525;28;20739;-86
2022/06/12 05:05:15;;;;;;;7.73;6.53;;;;;;;17.46;88.48;98715.34;4214758;28;20629;-86
2022/06/12 05:07:18;;;;;;;7.40;6.70;;;;;;;17.53;87.20;98720.94;4213757;28;20652;-86
2022/06/12 05:09:24;;;;;;;8.50;7.60;;;;;;;17.58;87.73;98722.19;4204644;28;20734;-86
2022/06/12 05:11:44;;;;;;;8.10;7.30;;;;;;;17.65;87.69;98718.09;4219077;28;20641;-86
2022/06/12 05:13:48;;;;;;;7.57;6.80;;;;;;;17.71;87.58;98717.56;4207609;28;20664;-86
2022/06/12 05:15:52;;;;;;;7.70;7.00;;;;;;;17.79;88.00;98715.06;4224583;28;20624;-87
2022/06/12 05:17:55;;;;;;;8.23;7.30;;;;;;;17.88;87.61;98718.72;4205950;28;20632;-86
2022/06/12 05:20:04;;;;;;;7.83;7.13;;;;;;;17.93;86.56;98712.06;4221342;28;20627;-86
2022/06/12 05:22:09;;;;;;;7.40;6.70;;;;;;;18.01;87.08;98720.97;4214379;28;20648;-87
2022/06/12 05:24:13;;;;;;;8.80;8.00;;;;;;;18.11;87.16;98713.06;4227242;28;20684;-86
2022/06/12 05:26:18;;;;;;;8.73;7.43;;;;;;;18.20;86.52;98717.56;4230400;28;20734;-86
2022/06/12 05:28:21;;;;;;;7.10;6.40;;;;;;;18.31;86.34;98713.03;4214570;28;20648;-86
2022/06/12 05:30:28;;;;;;;7.80;7.00;;;;;;;18.45;85.19;98720.53;4202910;28;20628;-87
2022/06/12 05:32:54;;;;;;;11.07;7.20;;;;;;;18.68;85.52;98714.81;4213943;28;20682;-87
2022/06/12 05:34:57;;;;;;;7.50;6.67;;;;;;;18.87;84.81;98717.47;4213711;28;21098;-87
2022/06/12 05:37:00;;;;;;;9.10;7.20;;;;;;;19.08;84.65;98711.06;4210666;28;20648;-87
2022/06/12 05:39:04;;;;;;;8.50;6.60;;;;;;;19.37;83.19;98714.50;4211047;28;20618;-86
2022/06/12 05:41:08;;;;;;;6.80;6.20;;;;;;;19.70;82.97;98724.56;4231204;28;20731;-87
2022/06/12 05:43:11;;;;;;;8.10;7.20;;;;;;;20.04;81.47;98723.84;4224666;28;21001;-87
2022/06/12 05:45:18;;;;;;;7.00;6.30;;;;;;;20.40;80.89;98727.25;4212688;28;20736;-87
2022/06/12 05:47:23;;;;;;;7.23;6.60;;;;;;;20.81;80.54;98732.00;4220414;28;20643;-86
2022/06/12 05:49:26;;;;;;;8.07;6.67;;;;;;;21.19;80.07;98726.34;4223230;28;20634;-87
2022/06/12 05:51:30;;;;;;;7.20;6.50;;;;;;;21.54;78.60;98729.78;4213112;28;20622;-87
2022/06/12 05:53:36;;;;;;;6.77;6.13;;;;;;;21.85;78.58;98731.78;4227718;28;20621;-87
2022/06/12 05:55:39;;;;;;;7.10;6.50;;;;;;;22.14;76.47;98726.91;4222999;28;20717;-87
2022/06/12 05:57:43;;;;;;;7.50;6.47;;;;;;;22.38;76.55;98731.34;4233629;27;20625;-87
2022/06/12 05:59:46;;;;;;;6.20;5.60;;;;;;;22.64;75.77;98728.56;4205735;28;20639;-87
2022/06/12 06:01:49;;;;;;;7.43;6.13;;;;;;;22.88;73.97;98724.09;4211361;28;20633;-87
2022/06/12 06:03:54;;;;;;;6.70;6.00;;;;;;;23.07;74.17;98729.97;4227295;28;20662;-86
2022/06/12 06:05:57;;;;;;;6.67;6.07;;;;;;;23.29;73.08;98727.47;4205499;28;20636;-86
2022/06/12 06:08:00;;;;;;;7.23;6.23;;;;;;;23.52;74.24;98736.41;4214508;28;20659;-86
2022/06/12 06:10:05;;;;;;;6.77;6.10;;;;;;;23.80;73.64;98732.38;4210097;28;20653;-87
2022/06/12 06:12:09;;;;;;;7.73;6.00;;;;;;;24.15;72.80;98742.63;4211499;28;20628;-86
2022/06/12 06:14:13;;;;;;;7.60;5.60;;;;;;;24.35;72.12;98742.84;4212999;28;20668;-86
2022/06/12 06:16:16;;;;;;;7.43;5.53;;;;;;;24.59;72.18;98748.06;4227053;28;20633;-87
2022/06/12 06:18:20;;;;;;;6.43;5.73;;;;;;;24.83;70.08;98737.25;4208168;28;20636;-86
2022/06/12 06:20:28;;;;;;;6.90;5.13;;;;;;;25.04;69.90;98742.81;4204586;28;20664;-86
2022/06/12 06:22:32;;;;;;;6.27;5.67;;;;;;;25.20;69.13;98744.31;4204126;28;20682;-87
2022/06/12 06:24:37;;;;;;;7.13;5.90;;;;;;;25.37;67.86;98742.34;4222545;28;20672;-87
2022/06/12 06:26:41;;;;;;;7.53;6.33;;;;;;;25.56;67.26;98742.66;4224493;28;20672;-87
2022/06/12 06:28:44;;;;;;;6.87;6.20;;;;;;;25.77;67.86;98735.63;4206153;28;20690;-87
2022/06/12 06:30:48;;;;;;;7.97;6.00;;;;;;;25.94;67.17;98746.97;4221552;28;20623;-86
2022/06/12 06:32:51;;;;;;;6.07;5.53;;;;;;;26.13;68.22;98737.38;4220314;28;20619;-86
2022/06/12 06:34:54;;;;;;;6.43;5.83;;;;;;;26.30;67.02;98744.22;4208985;28;21032;-87
2022/06/12 06:36:59;;;;;;;7.20;5.70;;;;;;;26.42;65.46;98744.56;4219444;28;20713;-86
2022/06/12 06:39:02;;;;;;;7.57;6.07;;;;;;;26.53;65.72;98744.09;4215086;28;21039;-87
2022/06/12 06:41:06;;;;;;;6.07;5.40;;;;;;;26.70;66.39;98747.19;4209891;28;20622;-87
2022/06/12 06:43:09;;;;;;;6.10;5.50;;;;;;;26.90;66.58;98744.72;4201681;28;20737;-86
2022/06/12 06:47:35;;;;;;;6.67;5.97;;;;;;;27.35;67.35;98743.31;4204917;28;20620;-86
2022/06/12 06:49:38;;;;;;;6.17;5.57;;;;;;;27.43;64.07;98745.84;4224239;28;20654;-87
2022/06/12 06:51:41;;;;;;;7.80;5.90;;;;;;;27.60;66.54;98752.63;4206056;28;20690;-86
2022/06/12 06:53:46;;;;;;;7.37;5.70;;;;;;;27.72;64.85;98756.44;4214427;28;20626;-86
2022/06/12 06:55:49;;;;;;;5.80;5.23;;;;;;;27.86;64.90;98759.03;4210322;28;21015;-87
2022/06/12 06:58:16;;;;;;;6.00;5.40;;;;;;;27.96;64.91;98755.97;4217640;28;20637;-87
2022/06/12 07:00:22;;;;;;;6.07;5.47;;;;;;;28.07;63.22;98759.78;4207293;28;20634;-86
2022/06/12 07:02:25;;;;;;;5.80;5.30;;;;;;;28.21;63.99;98764.22;4210555;28;20637;-87
2022/06/12 07:04:28;;;;;;;6.40;5.80;;;;;;;28.36;61.51;98756.03;4211089;28;20636;-86
2022/06/12 07:06:32;;;;;;;6.33;5.73;;;;;;;28.51;62.39;98770.97;4212478;28;20715;-86
2022/06/12 07:08:35;;;;;;;6.40;5.63;;;;;;;28.56;60.14;98755.06;4204126;28;20648;-86
2022/06/12 07:10:40;;;;;;;6.43;5.37;;;;;;;28.67;63.07;98770.66;4212135;28;20619;-87
2022/06/12 07:12:43;;;;;;;8.37;5.90;;;;;;;28.81;62.64;98767.00;4212354;28;21146;-87
2022/06/12 07:14:46;;;;;;;6.17;5.50;;;;;;;28.97;61.20;98761.22;4227629;28;20647;-87
2022/06/12 07:16:50;;;;;;;6.10;5.50;;;;;;;29.04;59.65;98757.53;4238689;27;20618;-87
2022/06/12 07:18:53;;;;;;;5.30;4.80;;;;;;;29.17;59.43;98753.00;4216523;28;20651;-86
2022/06/12 07:21:00;;;;;;;6.07;5.57;;;;;;;29.22;58.66;98755.91;4207104;28;20626;-87
2022/06/12 07:23:04;;;;;;;6.40;5.80;;;;;;;29.27;59.18;98753.44;4212171;28;20629;-86
2022/06/12 07:25:10;;;;;;;6.43;5.67;;;;;;;29.31;60.91;98754.69;4200968;28;20615;-87
2022/06/12 07:27:15;;;;;;;6.07;5.47;;;;;;;29.51;61.30;98742.94;4220653;28;21220;-87
2022/06/12 07:29:21;;;;;;;5.73;5.23;;;;;;;29.70;61.37;98754.72;4220786;28;20753;-86
2022/06/12 07:31:24;;;;;;;6.33;5.63;;;;;;;29.79;59.89;98743.53;4208474;28;20630;-86
2022/06/12 07:33:29;;;;;;;5.70;5.20;;;;;;;29.84;58.84;98745.63;4202544;28;20660;-87
2022/06/12 07:35:32;;;;;;;6.03;5.43;;;;;;;29.96;58.71;98737.53;4210313;28;20622;-86
2022/06/12 07:37:37;;;;;;;6.50;4.97;;;;;;;30.08;57.99;98748.47;4213095;28;20629;-87
2022/06/12 07:39:41;;;;;;;5.63;5.13;;;;;;;30.08;57.44;98749.28;4209637;28;20634;-87
2022/06/12 07:41:45;;;;;;;6.53;5.20;;;;;;;30.15;58.82;98747.41;4206076;28;20681;-87
2022/06/12 07:43:50;;;;;;;5.67;5.10;;;;;;;30.22;59.29;98736.59;4212085;28;20640;-87
2022/06/12 07:45:55;;;;;;;7.60;5.53;;;;;;;30.32;59.30;98737.00;4228749;28;21007;-87
2022/06/12 07:47:59;;;;;;;6.90;5.30;;;;;;;30.35;56.33;98736.59;4213614;28;20666;-87
2022/06/12 07:50:02;;;;;;;6.87;5.73;;;;;;;30.34;55.63;98737.63;4211904;28;20715;-87
2022/06/12 07:52:09;;;;;;;5.50;5.00;;;;;;;30.46;56.77;98742.13;4221983;28;21032;-87
2022/06/12 07:54:12;;;;;;;5.47;4.97;;;;;;;30.46;55.83;98737.59;4228229;28;20656;-86
2022/06/12 07:56:16;;;;;;;5.43;5.00;;;;;;;30.53;56.69;98737.56;4218958;28;20638;-87
2022/06/12 07:58:19;;;;;;;5.60;5.10;;;;;;;30.53;56.54;98730.28;4213001;28;20633;-87
2022/06/12 08:00:31;;;;;;;5.83;5.10;;;;;;;30.51;55.37;98735.09;4199425;28;20634;-87
2022/06/12 08:02:34;;;;;;;7.10;4.97;;;;;;;30.48;54.33;98724.72;4173657;28;20648;-87
2022/06/12 08:04:37;;;;;;;5.70;5.20;;;;;;;30.48;54.28;98734.69;4191389;28;20634;-87
2022/06/12 08:06:42;;;;;;;5.87;5.30;;;;;;;30.62;57.41;98731.72;4202686;28;20640;-86
2022/06/12 08:08:45;;;;;;;6.00;5.40;;;;;;;30.66;57.58;98734.81;4202996;28;21322;-87
2022/06/12 08:10:49;;;;;;;4.90;4.40;;;;;;;30.67;52.96;98725.69;4190142;28;20632;-86
2022/06/12 08:12:54;;;;;;;6.23;5.57;;;;;;;30.53;53.77;98726.78;4195630;28;20636;-87
2022/06/12 08:14:59;;;;;;;6.40;5.80;;;;;;;30.61;55.18;98715.75;4183360;28;20640;-87
2022/06/12 08:17:05;;;;;;;5.30;4.80;;;;;;;30.71;55.72;98726.91;4224025;28;20719;-87
2022/06/12 08:20:24;;;;;;;6.30;5.70;;;;;;;30.82;56.49;98726.22;4239718;27;20629;-87
2022/06/12 08:21:32;;;;;;;7.20;5.10;;;;;;;30.92;55.48;98722.84;4211532;28;20672;-87
2022/06/12 08:23:38;;;;;;;8.47;5.10;;;;;;;30.98;55.70;98730.09;4230428;28;20661;-86
2022/06/12 08:25:42;;;;;;;5.43;4.80;;;;;;;31.00;52.53;98725.31;4226574;28;20667;-87
2022/06/12 08:27:45;;;;;;;4.83;4.33;;;;;;;30.99;54.26;98723.66;4223087;28;20625;-87
2022/06/12 08:29:48;;;;;;;5.17;4.60;;;;;;;31.08;53.45;98726.94;4211018;28;20669;-87
2022/06/12 08:31:54;;;;;;;5.03;4.63;;;;;;;31.08;53.86;98716.97;4214008;28;21206;-87
2022/06/12 08:34:04;;;;;;;7.03;4.77;;;;;;;31.07;52.87;98717.19;4213943;28;20741;-87
2022/06/12 08:36:08;;;;;;;5.30;4.80;;;;;;;31.03;54.45;98716.78;4228164;28;20585;-86
2022/06/12 08:38:12;;;;;;;7.03;5.40;;;;;;;30.97;53.78;98720.38;4223990;28;20634;-86
2022/06/12 08:40:24;;;;;;;5.40;4.90;;;;;;;30.95;52.72;98713.53;4220655;28;20996;-86
2022/06/12 08:42:31;;;;;;;4.60;4.20;;;;;;;31.05;53.15;98719.28;4208198;28;20666;-86
2022/06/12 08:44:38;;;;;;;5.37;4.87;;;;;;;31.21;55.33;98719.53;4221293;28;20619;-86
2022/06/12 08:46:46;;;;;;;5.13;4.47;;;;;;;31.33;55.87;98715.09;4213334;28;20633;-87
2022/06/12 08:48:54;;;;;;;5.40;4.80;;;;;;;31.39;55.03;98711.53;4223488;28;21136;-87
2022/06/12 08:51:02;;;;;;;4.93;4.43;;;;;;;31.39;56.02;98708.81;4224845;28;20666;-86
2022/06/12 08:53:11;;;;;;;6.50;4.80;;;;;;;31.46;55.39;98710.44;4208356;28;20626;-87
2022/06/12 08:55:18;;;;;;;4.80;4.40;;;;;;;31.53;53.57;98711.22;4202288;28;20638;-87
2022/06/12 08:57:26;;;;;;;4.47;4.10;;;;;;;31.52;53.39;98701.47;4224678;28;20618;-87
2022/06/12 08:59:34;;;;;;;4.83;4.33;;;;;;;31.52;52.41;98701.47;4215026;28;20622;-87
2022/06/12 09:01:41;;;;;;;5.10;4.57;;;;;;;31.60;54.23;98701.19;4221232;28;20631;-87
2022/06/12 09:03:49;;;;;;;4.37;3.97;;;;;;;31.64;53.23;98696.19;4210327;28;20626;-87
2022/06/12 09:05:55;;;;;;;4.40;4.00;;;;;;;31.65;51.80;98693.28;4206347;28;20634;-87
2022/06/12 09:08:06;;;;;;;6.63;4.10;;;;;;;31.69;52.28;98690.94;4212389;28;20725;-87
2022/06/12 09:10:36;;;;;;;4.63;4.23;;;;;;;31.65;54.69;98697.81;4189991;28;20701;-87
2022/06/12 09:12:45;;;;;;;5.87;4.83;;;;;;;31.56;52.61;98693.78;4219571;28;21298;-87
2022/06/12 09:14:56;;;;;;;4.53;4.13;;;;;;;31.48;52.29;98686.78;4214272;28;20623;-86
2022/06/12 09:17:09;;;;;;;4.60;4.10;;;;;;;31.52;51.40;98687.16;4215327;28;20645;-87
2022/06/12 09:19:18;;;;;;;6.70;4.00;;;;;;;31.57;52.77;98684.63;4206136;28;20739;-87
2022/06/12 09:21:25;;;;;;;4.93;3.90;;;;;;;31.62;53.94;98682.91;4209767;28;21030;-87
2022/06/12 09:23:37;;;;;;;4.97;4.30;;;;;;;31.62;54.29;98680.22;4230220;28;20631;-87
2022/06/12 09:25:46;;;;;;;6.70;3.60;;;;;;;31.58;53.98;98679.00;4227504;28;20629;-87
2022/06/12 09:27:57;;;;;;;5.00;4.50;;;;;;;31.57;54.03;98685.44;4220115;28;20621;-87
2022/06/12 09:30:35;;;;;;;5.70;4.63;;;;;;;31.57;56.80;98687.31;4222790;27;20647;-87
2022/06/12 09:32:46;;;;;;;6.30;4.70;;;;;;;31.55;57.19;98670.53;4226415;27;20668;-86
2022/06/12 09:34:59;;;;;;;4.70;4.30;;;;;;;31.46;53.41;98667.28;4223931;28;21251;-87
2022/06/12 09:39:51;;;;;;;5.03;4.40;;;;;;;31.58;58.32;98670.09;4173687;28;20968;-87
2022/06/12 09:42:02;;;;;;;6.67;4.63;;;;;;;31.56;54.32;98666.78;4220070;28;20665;-87
2022/06/12 09:44:12;;;;;;;4.53;4.13;;;;;;;31.44;55.45;98673.97;4219222;28;21059;-87
2022/06/12 09:46:25;;;;;;;4.47;4.07;;;;;;;31.37;52.44;98666.94;4211753;28;20628;-87
2022/06/12 09:48:39;;;;;;;6.93;4.40;;;;;;;31.33;53.95;98660.31;4224345;28;20636;-86
2022/06/12 09:50:49;;;;;;;4.40;3.90;;;;;;;31.34;53.12;98665.50;4213825;28;20676;-86
2022/06/12 09:53:06;;;;;;;4.40;3.73;;;;;;;31.25;53.23;98661.44;4213375;28;20660;-87
2022/06/12 09:55:16;;;;;;;5.70;4.70;;;;;;;31.22;53.10;98659.16;4227033;28;20628;-87
2022/06/12 09:57:28;;;;;;;5.60;4.30;;;;;;;31.27;53.27;98655.81;4205852;28;20631;-87
2022/06/12 09:59:35;;;;;;;8.03;4.17;;;;;;;31.29;52.98;98659.94;4225286;28;20724;-87
2022/06/12 10:01:41;;;;;;;4.33;3.93;;;;;;;31.33;54.06;98650.34;4224955;28;20608;-87
2022/06/12 10:03:54;;;;;;;4.67;4.27;;;;;;;31.40;54.09;98649.28;4219791;28;20702;-86
2022/06/12 10:06:01;;;;;;;5.37;4.13;;;;;;;31.43;55.09;98640.72;4210081;28;20653;-87
2022/06/12 10:08:08;;;;;;;4.60;3.77;;;;;;;31.48;54.78;98643.63;4203904;28;20638;-87
2022/06/12 10:10:20;;;;;;;4.53;4.13;;;;;;;31.51;53.32;98642.31;4222823;28;20655;-87
2022/06/12 10:12:27;;;;;;;5.13;4.63;;;;;;;31.57;55.79;98652.22;4233597;27;21017;-87